Time;durP1;ratioP1;P1;durP2;ratioP2;P2;SDS_P1;SDS_P2;PMS_P1;PMS_P2;Temp;Humidity;BMP_temperature;BMP_pressure;BME280_temperature;BME280_humidity;BME280_pressure;Samples;Min_cycle;Max_cycle;Signal;HPM_P1;HPM_P2
2023/06/10 00:01:31;;;;;;;5.03;4.72;;;21.60;51.90;;;;;;926844;151;27356;-76
2023/06/10 00:03:58;;;;;;;4.92;4.42;;;21.50;52.00;;;;;;928094;152;27480;-76
2023/06/10 00:06:24;;;;;;;5.75;4.80;;;21.50;52.10;;;;;;927095;151;27440;-76
2023/06/10 00:08:51;;;;;;;5.15;4.65;;;21.50;52.30;;;;;;926020;152;27272;-76
2023/06/10 00:11:17;;;;;;;5.00;4.70;;;21.40;52.40;;;;;;926992;152;27356;-76
2023/06/10 00:13:45;;;;;;;5.12;4.67;;;21.40;52.60;;;;;;928957;151;27441;-76
2023/06/10 00:16:11;;;;;;;4.50;4.10;;;21.30;52.70;;;;;;926939;151;27572;-76
2023/06/10 00:18:38;;;;;;;5.05;4.65;;;21.30;52.90;;;;;;928186;152;27262;-76
2023/06/10 00:21:04;;;;;;;5.05;4.55;;;21.20;53.00;;;;;;929419;152;27464;-76
2023/06/10 00:23:30;;;;;;;4.62;4.33;;;21.20;53.20;;;;;;928096;151;27295;-76
2023/06/10 00:26:00;;;;;;;4.85;4.30;;;21.10;53.20;;;;;;924681;151;27338;-76
2023/06/10 00:28:27;;;;;;;4.95;4.55;;;21.10;53.30;;;;;;927176;151;27417;-76
2023/06/10 00:30:53;;;;;;;4.60;4.20;;;21.00;53.30;;;;;;927491;152;27279;-76
2023/06/10 00:33:20;;;;;;;4.00;3.70;;;20.90;53.40;;;;;;926755;152;27405;-76
2023/06/10 00:35:46;;;;;;;4.72;4.42;;;20.90;53.50;;;;;;925953;152;27397;-76
2023/06/10 00:38:13;;;;;;;4.90;4.50;;;20.80;53.60;;;;;;927458;152;27407;-76
2023/06/10 00:40:40;;;;;;;4.62;4.33;;;20.70;53.80;;;;;;928271;151;27794;-76
2023/06/10 00:43:06;;;;;;;5.40;4.55;;;20.70;54.00;;;;;;927028;152;27394;-76
2023/06/10 00:45:33;;;;;;;4.87;4.50;;;20.60;54.20;;;;;;927112;152;27285;-76
2023/06/10 00:48:02;;;;;;;4.95;4.45;;;20.50;54.30;;;;;;926076;152;27457;-76
2023/06/10 00:50:28;;;;;;;5.17;4.35;;;20.50;54.50;;;;;;926529;151;27410;-76
2023/06/10 00:52:55;;;;;;;5.05;4.55;;;20.40;54.60;;;;;;928959;151;27387;-76
2023/06/10 00:55:23;;;;;;;5.00;4.60;;;20.30;54.80;;;;;;926710;152;27430;-76
2023/06/10 00:57:48;;;;;;;5.12;4.62;;;20.20;54.90;;;;;;926596;152;27357;-76
2023/06/10 01:00:16;;;;;;;5.35;4.85;;;20.10;55.00;;;;;;926269;151;27382;-76
2023/06/10 01:02:41;;;;;;;5.10;4.70;;;20.00;55.30;;;;;;929466;152;27286;-76
2023/06/10 01:05:12;;;;;;;6.20;5.58;;;19.90;55.50;;;;;;926937;152;27352;-76
2023/06/10 01:07:37;;;;;;;5.22;4.72;;;19.80;55.70;;;;;;927919;152;27439;-76
2023/06/10 01:10:25;;;;;;;5.95;5.35;;;19.70;55.90;;;;;;928080;152;27348;-76
2023/06/10 01:12:54;;;;;;;7.22;5.45;;;19.70;56.10;;;;;;926227;152;27306;-76
2023/06/10 01:15:21;;;;;;;5.97;5.40;;;19.60;56.10;;;;;;925671;152;27361;-76
2023/06/10 01:17:57;;;;;;;5.92;4.90;;;19.50;56.20;;;;;;925507;152;27422;-76
2023/06/10 01:20:24;;;;;;;5.70;5.20;;;19.40;56.50;;;;;;925422;152;27411;-76
2023/06/10 01:22:50;;;;;;;5.35;4.83;;;19.30;56.70;;;;;;925392;152;27360;-76
2023/06/10 01:25:17;;;;;;;6.00;5.50;;;19.20;56.80;;;;;;927364;152;27302;-76
2023/06/10 01:27:44;;;;;;;5.90;5.40;;;19.20;57.10;;;;;;926307;152;27455;-76
2023/06/10 01:30:11;;;;;;;5.53;5.08;;;19.10;57.20;;;;;;926436;151;27489;-76
2023/06/10 01:32:39;;;;;;;5.83;5.33;;;19.10;57.40;;;;;;925286;151;27770;-76
2023/06/10 01:35:05;;;;;;;5.25;4.85;;;19.00;57.40;;;;;;936242;151;27416;-76
2023/06/10 01:37:32;;;;;;;5.92;5.42;;;18.90;57.60;;;;;;936332;151;27342;-76
2023/06/10 01:39:59;;;;;;;5.40;4.97;;;18.80;57.70;;;;;;936256;151;27337;-76
2023/06/10 01:42:25;;;;;;;5.58;5.08;;;18.80;57.90;;;;;;936266;151;27466;-76
2023/06/10 01:44:52;;;;;;;4.92;4.53;;;18.80;58.00;;;;;;937431;151;27376;-76
2023/06/10 01:47:18;;;;;;;8.58;6.08;;;18.70;58.10;;;;;;937205;151;27346;-76
2023/06/10 01:49:45;;;;;;;5.00;4.60;;;18.70;58.30;;;;;;937913;151;27424;-76
2023/06/10 01:52:12;;;;;;;5.03;4.58;;;18.60;58.40;;;;;;938526;151;27371;-76
2023/06/10 01:54:38;;;;;;;5.97;5.47;;;18.60;58.60;;;;;;935633;151;27386;-76
2023/06/10 01:57:06;;;;;;;5.28;4.87;;;18.50;58.60;;;;;;936774;151;27767;-76
2023/06/10 01:59:31;;;;;;;5.30;4.90;;;18.50;58.80;;;;;;937618;150;27324;-76
2023/06/10 02:01:58;;;;;;;5.53;5.12;;;18.40;58.80;;;;;;935035;151;27385;-76
2023/06/10 02:04:24;;;;;;;4.90;4.40;;;18.40;59.00;;;;;;936123;151;27858;-76
2023/06/10 02:06:51;;;;;;;5.70;5.20;;;18.40;59.10;;;;;;937494;151;27429;-76
2023/06/10 02:09:18;;;;;;;5.65;5.15;;;18.30;59.20;;;;;;936263;151;27301;-76
2023/06/10 02:11:44;;;;;;;5.75;5.25;;;18.30;59.30;;;;;;935737;151;27415;-76
2023/06/10 02:14:11;;;;;;;5.15;4.75;;;18.30;59.60;;;;;;936826;151;27367;-76
2023/06/10 02:16:37;;;;;;;5.17;4.78;;;18.20;59.50;;;;;;937099;151;27397;-76
2023/06/10 02:19:06;;;;;;;6.05;5.45;;;18.20;59.70;;;;;;937753;151;27352;-76
2023/06/10 02:21:31;;;;;;;6.28;5.78;;;18.10;59.80;;;;;;937849;151;27410;-76
2023/06/10 02:23:57;;;;;;;6.10;5.60;;;18.10;60.00;;;;;;937598;151;27371;-76
2023/06/10 02:26:26;;;;;;;6.67;5.78;;;18.10;60.10;;;;;;937133;151;27376;-76
2023/06/10 02:28:50;;;;;;;6.28;5.78;;;18.00;60.10;;;;;;935300;151;27374;-76
2023/06/10 02:31:17;;;;;;;5.87;5.37;;;17.90;60.20;;;;;;936348;151;27337;-76
2023/06/10 02:33:44;;;;;;;6.40;5.90;;;17.90;60.30;;;;;;937367;151;27476;-73
2023/06/10 02:36:13;;;;;;;5.75;5.28;;;17.80;60.40;;;;;;938375;151;27386;-73
2023/06/10 02:38:37;;;;;;;6.28;5.75;;;17.80;60.70;;;;;;938839;151;27654;-74
2023/06/10 02:41:03;;;;;;;5.67;5.17;;;17.70;60.80;;;;;;937635;151;27284;-74
2023/06/10 02:43:30;;;;;;;6.15;5.65;;;17.70;60.90;;;;;;938163;151;27384;-75
2023/06/10 02:45:56;;;;;;;5.83;5.35;;;17.60;61.00;;;;;;937736;151;27346;-75
2023/06/10 02:48:26;;;;;;;6.15;5.65;;;17.60;61.20;;;;;;935664;151;27372;-75
2023/06/10 02:50:53;;;;;;;6.47;5.85;;;17.50;61.40;;;;;;938002;151;27415;-75
2023/06/10 02:53:20;;;;;;;5.97;5.47;;;17.50;61.60;;;;;;939635;151;27348;-75
2023/06/10 02:55:46;;;;;;;6.27;5.70;;;17.50;61.90;;;;;;935601;151;27334;-75
2023/06/10 02:58:12;;;;;;;5.85;5.35;;;17.40;62.00;;;;;;934501;151;27375;-75
2023/06/10 03:00:40;;;;;;;6.17;5.67;;;17.30;62.00;;;;;;938799;151;27474;-75
2023/06/10 03:03:06;;;;;;;6.87;6.27;;;17.30;62.20;;;;;;936507;151;27364;-75
2023/06/10 03:05:32;;;;;;;7.10;6.40;;;17.30;62.50;;;;;;936794;151;27286;-75
2023/06/10 03:07:59;;;;;;;6.75;6.15;;;17.20;62.50;;;;;;937984;151;27392;-75
2023/06/10 03:10:26;;;;;;;6.90;5.75;;;17.20;62.70;;;;;;938017;151;28084;-75
2023/06/10 03:12:52;;;;;;;6.42;5.83;;;17.10;62.90;;;;;;937754;151;27351;-75
2023/06/10 03:15:20;;;;;;;6.20;5.60;;;17.10;63.20;;;;;;937571;151;27301;-75
2023/06/10 03:17:45;;;;;;;6.43;5.83;;;17.00;63.00;;;;;;936082;151;27772;-75
2023/06/10 03:20:12;;;;;;;6.78;6.20;;;17.00;63.20;;;;;;937578;151;27465;-75
2023/06/10 03:22:39;;;;;;;6.80;6.30;;;16.90;63.50;;;;;;936221;151;27397;-75
2023/06/10 03:25:05;;;;;;;6.20;5.70;;;16.90;63.70;;;;;;936811;151;27366;-75
2023/06/10 03:27:32;;;;;;;6.50;5.90;;;16.90;63.80;;;;;;937129;151;27402;-75
2023/06/10 03:29:58;;;;;;;6.70;6.20;;;16.80;63.90;;;;;;937492;151;27375;-75
2023/06/10 03:32:25;;;;;;;7.07;6.50;;;16.90;64.30;;;;;;938115;151;27448;-75
2023/06/10 03:34:57;;;;;;;7.35;6.72;;;16.80;64.50;;;;;;934000;151;27553;-75
2023/06/10 03:37:18;;;;;;;6.67;6.08;;;16.80;64.70;;;;;;932537;151;27540;-75
2023/06/10 03:39:45;;;;;;;9.13;6.47;;;16.80;65.00;;;;;;933344;151;27277;-75
2023/06/10 03:42:11;;;;;;;6.50;6.00;;;16.80;65.20;;;;;;932513;151;27345;-75
2023/06/10 03:44:38;;;;;;;7.45;6.75;;;16.80;65.30;;;;;;935164;151;27360;-75
2023/06/10 03:47:05;;;;;;;6.12;5.62;;;16.80;65.30;;;;;;934322;151;27388;-75
2023/06/10 03:49:32;;;;;;;7.20;6.60;;;16.90;65.50;;;;;;933119;151;27381;-75
2023/06/10 03:51:58;;;;;;;7.08;6.47;;;16.90;66.30;;;;;;933033;151;27361;-75
2023/06/10 03:54:25;;;;;;;7.10;6.50;;;16.90;65.70;;;;;;932208;151;27367;-75
2023/06/10 03:56:51;;;;;;;7.00;6.40;;;17.00;65.80;;;;;;907305;154;27406;-75
2023/06/10 03:59:18;;;;;;;7.50;6.80;;;17.00;65.80;;;;;;906597;154;27453;-75
2023/06/10 04:01:44;;;;;;;6.80;6.20;;;17.00;65.90;;;;;;906801;154;27490;-75
2023/06/10 04:04:11;;;;;;;7.83;7.15;;;17.10;65.90;;;;;;906780;154;27461;-75
2023/06/10 04:06:37;;;;;;;7.90;7.20;;;17.10;65.80;;;;;;904763;154;27549;-75
2023/06/10 04:09:04;;;;;;;8.50;7.70;;;17.20;65.90;;;;;;933720;150;27365;-75
2023/06/10 04:11:32;;;;;;;7.00;6.50;;;17.20;66.00;;;;;;906073;154;27376;-75
2023/06/10 04:13:57;;;;;;;8.37;7.57;;;17.20;66.00;;;;;;907286;154;27430;-75
2023/06/10 04:16:24;;;;;;;7.78;7.05;;;17.20;66.10;;;;;;906584;154;27360;-75
2023/06/10 04:18:50;;;;;;;7.90;6.90;;;17.30;66.80;;;;;;906677;154;27451;-75
2023/06/10 04:21:17;;;;;;;7.85;7.12;;;17.30;65.50;;;;;;907057;154;27363;-75
2023/06/10 04:23:43;;;;;;;7.42;6.83;;;17.40;66.30;;;;;;908086;154;27347;-75
2023/06/10 04:26:12;;;;;;;7.92;7.33;;;17.40;66.30;;;;;;905106;154;27417;-75
2023/06/10 04:28:37;;;;;;;7.30;6.70;;;17.50;66.40;;;;;;903747;154;27442;-75
2023/06/10 04:31:04;;;;;;;7.28;6.60;;;17.50;66.50;;;;;;907378;154;27548;-75
2023/06/10 04:33:30;;;;;;;7.55;6.92;;;17.60;66.60;;;;;;907151;154;27425;-75
2023/06/10 04:35:57;;;;;;;6.75;6.25;;;17.80;66.70;;;;;;904271;154;27437;-75
2023/06/10 04:38:23;;;;;;;6.95;6.45;;;17.90;66.80;;;;;;906759;154;27403;-75
2023/06/10 04:40:50;;;;;;;7.97;7.28;;;18.00;66.80;;;;;;904730;154;27415;-75
2023/06/10 04:43:16;;;;;;;7.17;6.47;;;18.10;66.80;;;;;;905970;154;27830;-75
2023/06/10 04:45:45;;;;;;;7.47;6.87;;;18.20;66.80;;;;;;906885;154;27532;-75
2023/06/10 04:48:10;;;;;;;7.80;6.95;;;18.30;66.80;;;;;;904543;154;27347;-75
2023/06/10 04:50:36;;;;;;;7.12;6.50;;;18.50;66.70;;;;;;935646;151;27397;-75
2023/06/10 04:53:02;;;;;;;7.05;6.40;;;18.70;66.60;;;;;;933486;151;27385;-75
2023/06/10 04:55:29;;;;;;;7.03;6.42;;;18.80;66.60;;;;;;934450;151;27357;-75
2023/06/10 04:57:56;;;;;;;5.90;5.50;;;19.10;67.60;;;;;;933857;151;27309;-75
2023/06/10 05:00:22;;;;;;;6.95;6.12;;;19.40;67.70;;;;;;921760;153;27411;-75
2023/06/10 05:02:51;;;;;;;6.00;5.60;;;19.80;68.50;;;;;;935123;151;27501;-75
2023/06/10 05:05:15;;;;;;;6.60;6.00;;;20.40;69.00;;;;;;932552;151;27345;-75
2023/06/10 05:07:42;;;;;;;6.87;6.17;;;21.10;68.90;;;;;;921067;153;27399;-75
2023/06/10 05:10:09;;;;;;;7.05;5.20;;;21.90;68.40;;;;;;923177;153;27709;-75
2023/06/10 05:12:35;;;;;;;5.55;5.10;;;22.60;67.70;;;;;;921924;153;27416;-75
2023/06/10 05:15:02;;;;;;;5.10;4.70;;;23.50;66.60;;;;;;922199;153;27379;-75
2023/06/10 05:17:28;;;;;;;4.92;4.42;;;24.40;65.30;;;;;;924656;153;27367;-75
2023/06/10 05:19:55;;;;;;;5.78;5.28;;;25.20;63.80;;;;;;917871;154;27380;-75
2023/06/10 05:22:23;;;;;;;5.65;5.15;;;26.10;62.60;;;;;;936688;151;27429;-75
2023/06/10 05:24:48;;;;;;;5.83;4.78;;;26.90;61.30;;;;;;921292;153;27400;-75
2023/06/10 05:27:15;;;;;;;6.17;5.58;;;27.70;60.50;;;;;;936058;150;27333;-75
2023/06/10 05:29:41;;;;;;;5.35;4.80;;;28.50;58.90;;;;;;924606;151;27808;-75
2023/06/10 05:32:08;;;;;;;5.30;4.90;;;29.30;57.70;;;;;;906980;154;27431;-75
2023/06/10 05:34:35;;;;;;;5.28;4.83;;;30.10;56.70;;;;;;935062;151;27462;-75
2023/06/10 05:37:01;;;;;;;4.70;4.17;;;30.70;55.40;;;;;;931109;151;27433;-75
2023/06/10 05:39:28;;;;;;;5.00;4.60;;;31.40;54.40;;;;;;907602;155;27481;-75
2023/06/10 05:41:54;;;;;;;4.45;3.98;;;32.10;53.50;;;;;;904882;156;27332;-75
2023/06/10 05:44:21;;;;;;;4.10;3.80;;;32.70;52.70;;;;;;908114;155;27661;-75
2023/06/10 05:46:47;;;;;;;4.45;4.15;;;33.30;51.90;;;;;;917639;154;27400;-75
2023/06/10 05:49:14;;;;;;;4.53;3.98;;;33.90;50.90;;;;;;916931;154;26233;-75
2023/06/10 05:51:41;;;;;;;4.37;3.98;;;34.50;50.00;;;;;;917725;154;26257;-75
2023/06/10 05:54:07;;;;;;;3.95;3.65;;;35.00;49.00;;;;;;916148;154;26285;-76
2023/06/10 05:56:34;;;;;;;4.62;4.22;;;35.50;48.10;;;;;;923376;152;26400;-76
2023/06/10 05:59:00;;;;;;;4.62;4.22;;;36.00;47.30;;;;;;918251;154;26317;-75
2023/06/10 06:01:27;;;;;;;3.65;3.35;;;36.40;46.70;;;;;;917967;154;27716;-76
2023/06/10 06:03:54;;;;;;;4.03;3.72;;;36.80;45.80;;;;;;918637;153;26264;-75
2023/06/10 06:06:23;;;;;;;4.65;3.80;;;37.30;45.40;;;;;;916179;154;27386;-75
2023/06/10 06:08:49;;;;;;;3.85;3.42;;;37.70;44.60;;;;;;918207;153;26297;-75
2023/06/10 06:11:16;;;;;;;4.35;3.95;;;38.20;44.10;;;;;;915360;154;26267;-76
2023/06/10 06:13:42;;;;;;;4.53;3.67;;;38.70;43.50;;;;;;917210;154;26338;-76
2023/06/10 06:16:09;;;;;;;3.40;3.10;;;39.10;42.60;;;;;;924075;152;26282;-76
2023/06/10 06:18:36;;;;;;;3.45;3.20;;;39.50;41.80;;;;;;911035;155;26323;-73
2023/06/10 06:21:02;;;;;;;3.33;3.10;;;39.90;41.10;;;;;;913872;155;26226;-73
2023/06/10 06:23:30;;;;;;;3.58;3.27;;;40.30;40.40;;;;;;922106;152;26211;-73
2023/06/10 06:25:55;;;;;;;3.12;2.90;;;40.60;39.60;;;;;;917110;153;26284;-73
2023/06/10 06:28:22;;;;;;;3.40;3.20;;;40.90;38.90;;;;;;918194;154;26438;-73
2023/06/10 06:30:48;;;;;;;3.00;2.80;;;41.20;38.40;;;;;;918179;154;26421;-73
2023/06/10 06:33:15;;;;;;;3.00;2.80;;;41.50;37.70;;;;;;917701;153;26278;-73
2023/06/10 06:35:42;;;;;;;3.42;3.12;;;41.60;36.80;;;;;;923838;152;26363;-73
2023/06/10 06:38:08;;;;;;;3.20;2.92;;;41.70;36.10;;;;;;891861;156;26310;-74
2023/06/10 06:40:35;;;;;;;3.20;3.00;;;41.90;35.90;;;;;;893082;156;26339;-73
2023/06/10 06:43:02;;;;;;;3.08;2.87;;;41.90;35.30;;;;;;890751;156;26268;-73
2023/06/10 06:45:28;;;;;;;3.10;2.90;;;42.10;35.20;;;;;;891091;156;26339;-73
2023/06/10 06:47:55;;;;;;;2.98;2.77;;;42.20;35.00;;;;;;913789;154;26250;-73
2023/06/10 06:50:21;;;;;;;3.95;2.92;;;42.30;34.60;;;;;;913062;154;26310;-73
2023/06/10 06:52:48;;;;;;;3.42;3.20;;;42.40;34.40;;;;;;913903;154;26379;-73
2023/06/10 06:55:14;;;;;;;3.85;3.02;;;42.60;34.10;;;;;;911772;154;26328;-73
2023/06/10 06:57:41;;;;;;;3.00;2.80;;;42.80;33.60;;;;;;913313;154;26331;-73
2023/06/10 07:00:08;;;;;;;4.12;3.40;;;43.00;33.50;;;;;;913234;154;26298;-73
2023/06/10 07:02:35;;;;;;;5.58;3.40;;;43.10;33.10;;;;;;908835;155;26371;-73
2023/06/10 07:05:01;;;;;;;3.27;3.02;;;43.30;32.70;;;;;;892033;157;26264;-73
2023/06/10 07:07:27;;;;;;;3.12;2.90;;;43.50;32.40;;;;;;891105;156;26309;-73
2023/06/10 07:09:54;;;;;;;5.37;2.98;;;43.60;32.00;;;;;;890938;156;26256;-73
2023/06/10 07:12:23;;;;;;;3.10;2.80;;;43.70;31.60;;;;;;892062;156;26871;-73
2023/06/10 07:14:47;;;;;;;3.50;3.20;;;43.80;30.70;;;;;;891760;156;26392;-73
2023/06/10 07:17:14;;;;;;;3.20;2.92;;;44.00;31.00;;;;;;891911;156;26260;-73
2023/06/10 07:19:40;;;;;;;3.55;2.95;;;44.10;30.90;;;;;;911426;154;26262;-73
2023/06/10 07:22:07;;;;;;;3.42;2.87;;;44.30;30.90;;;;;;912695;154;26267;-73
2023/06/10 07:24:34;;;;;;;3.02;2.83;;;44.40;30.70;;;;;;914091;154;26590;-73
2023/06/10 07:27:00;;;;;;;3.27;3.02;;;44.60;30.50;;;;;;913046;154;26263;-73
2023/06/10 07:29:27;;;;;;;3.35;3.05;;;44.70;30.00;;;;;;915071;154;26363;-73
2023/06/10 07:31:53;;;;;;;3.75;3.42;;;44.90;29.80;;;;;;923785;152;26325;-73
2023/06/10 07:34:20;;;;;;;3.17;2.90;;;44.90;29.30;;;;;;891469;156;26323;-73
2023/06/10 07:36:46;;;;;;;3.22;2.90;;;44.90;29.30;;;;;;891279;156;26396;-73
2023/06/10 07:39:13;;;;;;;3.20;2.90;;;45.00;29.40;;;;;;915339;154;26298;-73
2023/06/10 07:41:40;;;;;;;2.92;2.72;;;45.10;29.20;;;;;;915806;154;26260;-73
2023/06/10 07:44:06;;;;;;;2.75;2.60;;;45.20;29.00;;;;;;916270;154;26403;-73
2023/06/10 07:46:33;;;;;;;2.95;2.75;;;45.30;29.50;;;;;;916302;154;26394;-73
2023/06/10 07:48:59;;;;;;;3.02;2.77;;;45.40;28.80;;;;;;919307;154;26312;-73
2023/06/10 07:51:26;;;;;;;3.20;2.70;;;45.60;28.80;;;;;;918353;153;26252;-73
2023/06/10 07:53:53;;;;;;;3.35;2.87;;;45.70;28.60;;;;;;891034;156;26378;-73
2023/06/10 07:56:21;;;;;;;2.85;2.65;;;45.80;28.40;;;;;;922326;152;26370;-73
2023/06/10 07:58:46;;;;;;;3.33;2.80;;;45.90;28.20;;;;;;915831;153;26320;-73
2023/06/10 08:01:12;;;;;;;3.05;2.85;;;46.10;28.00;;;;;;917795;154;26314;-73
2023/06/10 08:03:39;;;;;;;3.62;3.37;;;46.10;27.90;;;;;;916693;154;26260;-73
2023/06/10 08:06:06;;;;;;;3.02;2.80;;;46.30;27.70;;;;;;917646;153;26322;-73
2023/06/10 08:08:32;;;;;;;3.00;2.67;;;46.30;27.80;;;;;;916196;154;26350;-73
2023/06/10 08:10:59;;;;;;;3.02;2.77;;;46.50;27.70;;;;;;917084;154;26316;-73
2023/06/10 08:13:25;;;;;;;3.77;2.87;;;46.70;27.50;;;;;;923499;152;26276;-73
2023/06/10 08:15:54;;;;;;;5.03;3.08;;;46.90;27.40;;;;;;902237;155;26281;-73
2023/06/10 08:18:18;;;;;;;2.60;2.40;;;47.20;27.20;;;;;;924034;152;26383;-73
2023/06/10 08:20:45;;;;;;;2.87;2.60;;;47.40;27.50;;;;;;912706;151;26388;-73
2023/06/10 08:23:12;;;;;;;3.37;2.70;;;47.60;27.00;;;;;;925572;151;26237;-73
2023/06/10 08:25:38;;;;;;;2.87;2.67;;;47.80;26.50;;;;;;917431;153;26340;-73
2023/06/10 08:28:05;;;;;;;3.10;2.62;;;47.90;26.80;;;;;;919307;152;26265;-73
2023/06/10 08:30:31;;;;;;;2.90;2.60;;;48.20;26.40;;;;;;922095;152;26273;-73
2023/06/10 08:32:58;;;;;;;5.17;2.83;;;48.30;26.30;;;;;;898910;155;26316;-73
2023/06/10 08:35:25;;;;;;;3.05;2.85;;;48.50;26.20;;;;;;898011;155;26378;-73
2023/06/10 08:37:51;;;;;;;2.70;2.50;;;48.60;26.10;;;;;;899145;153;26314;-73
2023/06/10 08:40:18;;;;;;;3.00;2.70;;;48.80;25.80;;;;;;908797;153;26400;-73
2023/06/10 08:42:50;;;;;;;3.40;2.83;;;48.90;25.70;;;;;;909122;153;26359;-73
2023/06/10 08:45:17;;;;;;;2.40;2.30;;;49.10;25.60;;;;;;908013;154;26278;-73
2023/06/10 08:47:43;;;;;;;3.00;2.70;;;49.20;25.40;;;;;;909600;154;26260;-73
2023/06/10 08:50:10;;;;;;;2.77;2.58;;;49.20;25.30;;;;;;908566;154;26844;-73
2023/06/10 08:52:37;;;;;;;2.98;2.75;;;49.30;25.30;;;;;;908277;154;26331;-73
2023/06/10 08:55:06;;;;;;;3.33;2.77;;;49.50;25.50;;;;;;908613;154;26365;-73
2023/06/10 08:57:32;;;;;;;4.03;2.77;;;49.70;25.10;;;;;;898740;153;26315;-75
2023/06/10 08:59:59;;;;;;;7.03;3.27;;;49.90;25.00;;;;;;908100;153;26625;-75
2023/06/10 09:02:25;;;;;;;2.83;2.33;;;50.00;24.90;;;;;;910267;153;26339;-75
2023/06/10 09:04:52;;;;;;;2.50;2.40;;;50.30;24.70;;;;;;910062;153;26439;-75
2023/06/10 09:07:19;;;;;;;3.83;2.20;;;50.30;24.40;;;;;;911542;153;26437;-75
2023/06/10 09:09:45;;;;;;;2.47;2.27;;;50.40;24.40;;;;;;908093;154;26396;-75
2023/06/10 09:12:12;;;;;;;2.55;2.35;;;50.50;24.40;;;;;;910684;153;26436;-75
2023/06/10 09:14:38;;;;;;;2.40;2.20;;;50.60;24.30;;;;;;908544;153;26409;-75
2023/06/10 09:17:05;;;;;;;2.85;2.58;;;50.80;24.00;;;;;;910583;153;26410;-75
2023/06/10 09:19:31;;;;;;;3.02;2.70;;;50.80;23.80;;;;;;908844;153;26295;-75
2023/06/10 09:21:58;;;;;;;2.45;2.33;;;50.80;23.80;;;;;;906759;153;26288;-75
2023/06/10 09:24:25;;;;;;;2.70;2.50;;;50.70;23.60;;;;;;909113;154;26319;-75
2023/06/10 09:26:51;;;;;;;2.35;2.15;;;50.60;23.70;;;;;;907411;153;26309;-75
2023/06/10 09:29:18;;;;;;;2.20;2.10;;;50.60;23.80;;;;;;930962;150;26400;-75
2023/06/10 09:31:44;;;;;;;3.15;2.10;;;50.70;24.00;;;;;;917795;154;26231;-76
2023/06/10 09:34:14;;;;;;;2.47;2.37;;;50.80;23.60;;;;;;917593;154;26288;-75
2023/06/10 09:36:40;;;;;;;1.98;1.87;;;50.90;23.60;;;;;;937687;151;26385;-75
2023/06/10 09:39:16;;;;;;;1.70;1.60;;;51.00;23.40;;;;;;926489;150;26383;-75
2023/06/10 09:41:43;;;;;;;2.10;2.00;;;51.00;22.90;;;;;;902623;155;26262;-75
2023/06/10 09:44:15;;;;;;;1.95;1.85;;;51.00;22.70;;;;;;902467;155;26437;-75
2023/06/10 09:46:41;;;;;;;2.17;1.65;;;50.70;22.50;;;;;;924762;152;26265;-75
2023/06/10 09:49:08;;;;;;;2.25;2.05;;;50.30;22.30;;;;;;918022;154;26397;-75
2023/06/10 09:51:34;;;;;;;2.20;2.10;;;49.80;22.40;;;;;;917500;154;26305;-75
2023/06/10 09:54:01;;;;;;;3.15;2.10;;;49.20;22.40;;;;;;917788;154;26362;-75
2023/06/10 09:56:36;;;;;;;3.50;1.95;;;48.50;22.30;;;;;;926778;151;26894;-75
2023/06/10 09:59:03;;;;;;;1.85;1.75;;;47.80;22.40;;;;;;903613;155;26243;-75
2023/06/10 10:01:29;;;;;;;2.87;2.40;;;47.10;22.70;;;;;;922045;152;26253;-75
2023/06/10 10:03:56;;;;;;;2.40;2.00;;;46.40;22.70;;;;;;923353;152;26316;-75
2023/06/10 10:06:23;;;;;;;4.00;2.15;;;45.70;22.90;;;;;;918685;154;26300;-75
2023/06/10 10:08:49;;;;;;;4.28;2.47;;;45.00;22.90;;;;;;919127;154;26256;-75
2023/06/10 10:11:19;;;;;;;2.10;1.90;;;44.30;22.90;;;;;;924289;152;26320;-75
2023/06/10 10:13:45;;;;;;;2.40;2.20;;;43.60;23.00;;;;;;905522;155;26279;-75
2023/06/10 10:16:12;;;;;;;2.40;2.22;;;42.80;23.30;;;;;;907293;155;26330;-74
2023/06/10 10:18:41;;;;;;;2.35;2.25;;;42.00;23.60;;;;;;906438;155;26245;-74
2023/06/10 10:21:08;;;;;;;2.77;2.35;;;41.30;23.80;;;;;;903918;155;26276;-75
2023/06/10 10:23:43;;;;;;;3.90;2.50;;;40.60;24.00;;;;;;915397;154;26316;-75
2023/06/10 10:26:10;;;;;;;2.67;2.25;;;40.00;24.40;;;;;;921980;152;26321;-75
2023/06/10 10:28:39;;;;;;;2.20;2.10;;;39.50;24.60;;;;;;921369;152;26434;-75
2023/06/10 10:31:06;;;;;;;2.80;2.35;;;38.90;24.90;;;;;;915315;152;27404;-74
2023/06/10 10:33:33;;;;;;;2.47;2.30;;;38.50;25.10;;;;;;905674;155;27409;-75
2023/06/10 10:35:59;;;;;;;2.37;2.27;;;38.00;25.40;;;;;;901739;155;27496;-74
2023/06/10 10:38:26;;;;;;;2.02;1.92;;;37.60;25.70;;;;;;916883;153;26273;-74
2023/06/10 10:40:52;;;;;;;2.50;2.30;;;37.20;25.90;;;;;;914145;154;27489;-74
2023/06/10 10:43:19;;;;;;;2.12;1.98;;;36.80;26.00;;;;;;925279;152;27433;-74
2023/06/10 10:45:46;;;;;;;3.12;2.12;;;36.40;26.10;;;;;;907207;156;27423;-74
2023/06/10 10:48:12;;;;;;;3.30;2.33;;;36.10;26.50;;;;;;923669;152;27333;-74
2023/06/10 10:50:39;;;;;;;3.02;2.30;;;35.80;26.80;;;;;;925107;152;27336;-74
2023/06/10 10:53:05;;;;;;;2.60;1.92;;;35.60;27.00;;;;;;907827;155;27342;-74
2023/06/10 10:55:32;;;;;;;2.27;2.10;;;35.30;27.00;;;;;;913210;154;27365;-76
2023/06/10 10:58:08;;;;;;;2.80;2.00;;;35.10;27.10;;;;;;910315;154;27489;-77
2023/06/10 11:00:34;;;;;;;2.52;2.33;;;34.80;27.30;;;;;;913322;154;27477;-76
2023/06/10 11:03:04;;;;;;;2.80;2.40;;;34.70;27.60;;;;;;911117;155;27392;-76
2023/06/10 11:05:44;;;;;;;2.50;2.30;;;34.50;28.00;;;;;;912814;154;27389;-76
2023/06/10 11:08:09;;;;;;;2.52;2.30;;;34.50;28.30;;;;;;911458;154;27417;-75
2023/06/10 11:10:35;;;;;;;2.90;2.65;;;34.40;28.20;;;;;;912928;154;27506;-74
2023/06/10 11:13:14;;;;;;;2.45;2.25;;;34.30;28.30;;;;;;911282;155;27782;-76
2023/06/10 11:15:49;;;;;;;2.70;2.50;;;34.30;28.20;;;;;;908641;155;27377;-76
2023/06/10 11:18:28;;;;;;;2.95;2.50;;;34.20;28.30;;;;;;914087;154;27427;-76
2023/06/10 11:20:57;;;;;;;2.55;2.35;;;34.20;28.30;;;;;;910877;154;27399;-76
2023/06/10 11:23:30;;;;;;;2.17;2.08;;;34.10;28.40;;;;;;914768;154;27416;-77
2023/06/10 11:26:14;;;;;;;2.27;2.17;;;34.10;28.60;;;;;;908829;155;27355;-76
2023/06/10 11:28:41;;;;;;;2.15;2.05;;;34.00;28.70;;;;;;894551;156;27468;-73
2023/06/10 11:31:08;;;;;;;2.27;2.08;;;34.00;28.60;;;;;;922032;152;27382;-73
2023/06/10 11:33:35;;;;;;;2.50;2.30;;;34.00;28.80;;;;;;911069;154;27373;-73
2023/06/10 11:36:01;;;;;;;3.10;2.60;;;34.00;28.80;;;;;;909236;154;27347;-74
2023/06/10 11:38:27;;;;;;;2.85;2.65;;;34.00;28.60;;;;;;913739;154;27413;-73
2023/06/10 11:40:54;;;;;;;3.75;2.58;;;34.00;28.50;;;;;;908847;155;27503;-74
2023/06/10 11:43:21;;;;;;;2.90;2.60;;;34.10;28.60;;;;;;909773;155;27392;-73
2023/06/10 11:45:47;;;;;;;3.00;2.70;;;34.10;28.50;;;;;;890056;155;27482;-73
2023/06/10 11:48:14;;;;;;;3.83;2.30;;;34.10;28.80;;;;;;892177;155;27412;-73
2023/06/10 11:50:41;;;;;;;3.25;2.62;;;34.10;28.90;;;;;;888918;155;27307;-73
2023/06/10 11:53:07;;;;;;;2.83;2.58;;;34.10;29.00;;;;;;891369;155;27468;-73
2023/06/10 11:55:43;;;;;;;4.70;2.70;;;34.10;29.10;;;;;;890835;155;27407;-73
2023/06/10 11:58:18;;;;;;;2.80;2.60;;;34.10;29.50;;;;;;890291;155;27382;-74
2023/06/10 12:00:53;;;;;;;3.02;2.83;;;34.20;28.90;;;;;;890832;155;27355;-73
2023/06/10 12:03:22;;;;;;;2.60;2.40;;;34.20;28.80;;;;;;892984;155;27340;-74
2023/06/10 12:06:02;;;;;;;2.77;2.58;;;34.10;28.70;;;;;;918252;154;27413;-73
2023/06/10 12:08:29;;;;;;;2.40;2.25;;;34.10;28.90;;;;;;916396;154;27904;-73
2023/06/10 12:10:55;;;;;;;3.17;2.87;;;34.10;29.00;;;;;;923802;152;27366;-73
2023/06/10 12:13:23;;;;;;;2.85;2.65;;;34.00;29.10;;;;;;924159;152;27325;-73
2023/06/10 12:15:48;;;;;;;2.87;2.67;;;34.00;29.20;;;;;;916510;153;27386;-72
2023/06/10 12:18:24;;;;;;;2.65;2.45;;;33.90;29.20;;;;;;918499;154;27392;-72
2023/06/10 12:20:50;;;;;;;2.67;2.55;;;33.90;29.40;;;;;;916689;153;27371;-72
2023/06/10 12:23:17;;;;;;;3.25;2.98;;;33.90;29.70;;;;;;907145;155;27324;-72
2023/06/10 12:25:53;;;;;;;3.00;2.67;;;33.80;29.70;;;;;;920850;152;27382;-72
2023/06/10 12:28:22;;;;;;;2.50;2.27;;;33.80;29.80;;;;;;907332;153;27419;-72
2023/06/10 12:30:49;;;;;;;3.20;2.98;;;33.90;29.90;;;;;;890373;156;27419;-72
2023/06/10 12:33:18;;;;;;;3.98;2.80;;;33.90;29.80;;;;;;920387;152;27344;-73
2023/06/10 12:35:48;;;;;;;2.83;2.62;;;33.90;29.70;;;;;;902611;156;27468;-73
2023/06/10 12:38:14;;;;;;;2.77;2.58;;;33.90;29.40;;;;;;904594;155;27507;-72
2023/06/10 12:40:41;;;;;;;3.35;3.00;;;33.90;29.40;;;;;;924417;151;27382;-72
2023/06/10 12:43:07;;;;;;;2.60;2.40;;;33.90;29.50;;;;;;933794;151;27397;-73
2023/06/10 12:45:34;;;;;;;3.25;2.80;;;33.90;29.60;;;;;;934732;151;27404;-73
2023/06/10 12:48:09;;;;;;;2.83;2.62;;;33.70;29.70;;;;;;930887;150;27357;-72